createdAt,value
2018-07-20T05:00:57.559Z,95077.21
2018-07-20T05:06:00.905Z,95074.16
2018-07-20T05:11:04.223Z,95070.45
2018-07-20T05:16:07.565Z,95073.19
2018-07-20T05:21:10.914Z,95077.55
2018-07-20T05:26:17.513Z,95078.14
2018-07-20T05:31:21.651Z,95075.45
2018-07-20T05:36:24.951Z,95073.92
2018-07-20T05:41:29.049Z,95069.66
2018-07-20T05:46:32.386Z,95071.55
2018-07-20T05:51:35.719Z,95064.16
2018-07-20T05:56:39.045Z,95065.00
2018-07-20T06:01:42.382Z,95072.97
2018-07-20T06:06:45.717Z,95068.02
2018-07-20T06:11:49.067Z,95069.26
2018-07-20T06:16:52.406Z,95068.08
2018-07-20T06:21:55.742Z,95072.97
2018-07-20T06:26:59.079Z,95070.03
2018-07-20T06:32:02.402Z,95075.98
2018-07-20T06:37:05.734Z,95074.92
2018-07-20T06:42:09.071Z,95075.58
2018-07-20T06:47:13.454Z,95071.23
2018-07-20T06:52:16.786Z,95074.31
2018-07-20T06:57:20.883Z,95078.13
2018-07-20T07:02:24.213Z,95081.92
2018-07-20T07:07:28.334Z,95078.86
2018-07-20T07:12:31.671Z,95080.32
2018-07-20T07:17:35.762Z,95082.41
2018-07-20T07:22:39.090Z,95086.85
2018-07-20T07:27:42.419Z,95073.22
2018-07-20T07:32:46.522Z,95078.03
2018-07-20T07:37:49.850Z,95077.68
2018-07-20T07:42:53.189Z,95072.72
2018-07-20T07:47:56.523Z,95075.11
2018-07-20T07:52:59.855Z,95075.07
2018-07-20T07:58:03.233Z,95069.84
2018-07-20T08:03:07.708Z,95068.55
2018-07-20T08:08:11.009Z,95072.06
2018-07-20T08:13:14.337Z,95068.64
2018-07-20T08:18:17.666Z,95065.78
2018-07-20T08:23:21.006Z,95060.20
2018-07-20T08:28:25.115Z,95051.88
2018-07-20T08:33:28.445Z,95052.44
2018-07-20T08:38:32.535Z,95056.23
2018-07-20T08:43:35.871Z,95057.24
2018-07-20T08:48:39.378Z,95060.53
2018-07-20T08:53:42.716Z,95062.80
2018-07-20T08:58:46.825Z,95061.90
2018-07-20T09:03:50.161Z,95062.61
2018-07-20T09:08:53.497Z,95059.66
2018-07-20T09:13:56.844Z,95055.42
2018-07-20T09:19:00.181Z,95052.52
2018-07-20T09:24:03.518Z,95050.06
2018-07-20T09:29:07.627Z,95046.78
2018-07-20T09:34:10.978Z,95049.05
2018-07-20T09:39:14.302Z,95051.65
2018-07-20T09:44:17.629Z,95055.47
2018-07-20T09:49:20.994Z,95057.73
2018-07-20T09:54:25.106Z,95057.15
2018-07-20T09:59:28.482Z,95052.34
2018-07-20T10:04:32.543Z,95046.41
2018-07-20T10:09:35.882Z,95043.77
2018-07-20T10:14:39.978Z,95036.14
2018-07-20T10:19:43.305Z,95035.46
2018-07-20T10:24:46.640Z,95035.30
2018-07-20T10:29:50.743Z,95029.52
2018-07-20T10:34:54.135Z,95025.19
2018-07-20T10:39:57.461Z,95024.47
2018-07-20T10:45:00.786Z,95018.04
2018-07-20T10:50:04.119Z,95010.65
2018-07-20T10:55:07.451Z,95011.00
2018-07-20T11:00:10.770Z,95004.66
2018-07-20T11:05:14.090Z,94997.89
2018-07-20T11:10:17.522Z,94989.83
2018-07-20T11:15:20.851Z,94987.47
2018-07-20T11:20:24.190Z,94980.80
2018-07-20T11:25:27.526Z,94977.84
2018-07-20T11:30:30.864Z,94965.38
2018-07-20T11:35:34.202Z,94960.22
2018-07-20T11:40:37.555Z,94957.52
2018-07-20T11:45:41.654Z,94949.63
2018-07-20T11:50:45.966Z,94952.42
2018-07-20T11:55:49.341Z,94945.11
2018-07-20T12:00:52.637Z,94947.67
2018-07-20T12:05:56.918Z,94944.17
2018-07-20T12:11:00.287Z,94936.76
2018-07-20T12:16:04.562Z,94937.04
2018-07-20T12:21:07.936Z,94931.38
2018-07-20T12:26:12.526Z,94924.34
2018-07-20T12:31:15.876Z,94923.09
2018-07-20T12:36:19.211Z,94924.45
2018-07-20T12:41:22.766Z,94914.27
2018-07-20T12:46:26.102Z,94908.34
2018-07-20T12:51:29.427Z,94914.49
2018-07-20T12:56:32.754Z,94904.80
2018-07-20T13:01:36.838Z,94907.89
2018-07-20T13:06:40.171Z,94904.75
2018-07-20T13:11:43.535Z,94901.70
2018-07-20T13:16:46.894Z,94891.47
2018-07-20T13:21:50.243Z,94888.05
2018-07-20T13:26:53.703Z,94889.39
2018-07-20T13:31:57.034Z,94884.97
2018-07-20T13:37:01.147Z,94884.00
2018-07-20T13:42:04.469Z,94888.61
2018-07-20T13:47:07.838Z,94879.36
2018-07-20T13:52:11.166Z,94889.05
2018-07-20T13:57:14.496Z,94880.44
2018-07-20T14:02:17.826Z,94888.32
2018-07-20T14:07:21.163Z,94871.86
2018-07-20T14:12:25.356Z,94871.58
2018-07-20T14:17:28.694Z,94866.77
2018-07-20T14:22:32.388Z,94862.20
2018-07-20T14:27:35.971Z,94862.73
2018-07-20T14:32:39.729Z,94869.13
2018-07-20T14:37:47.174Z,94872.76
2018-07-20T14:42:54.137Z,94870.34
2018-07-20T14:47:57.481Z,94868.05
2018-07-20T14:53:00.826Z,94857.60
2018-07-20T14:58:04.579Z,94849.34
2018-07-20T15:03:07.933Z,94843.30
2018-07-20T15:08:12.039Z,94841.11
2018-07-20T15:13:15.367Z,94837.18
2018-07-20T15:18:18.705Z,94820.63
2018-07-20T15:23:22.816Z,94819.19
2018-07-20T15:28:26.910Z,94824.75
2018-07-20T15:33:30.244Z,94814.20
2018-07-20T15:38:33.574Z,94813.48
2018-07-20T15:43:37.692Z,94811.63
2018-07-20T15:48:41.303Z,94810.95
2018-07-20T15:53:45.263Z,94814.61
2018-07-20T15:58:57.666Z,94799.60
2018-07-20T16:04:00.994Z,94808.34
2018-07-20T16:09:05.092Z,94799.77
2018-07-20T16:14:08.450Z,94801.19
2018-07-20T16:19:12.581Z,94800.34
2018-07-20T16:24:16.138Z,94799.50
2018-07-20T16:29:47.715Z,94805.70
2018-07-20T16:34:51.081Z,94807.88
2018-07-20T16:40:02.228Z,94811.35
2018-07-20T16:45:05.570Z,94816.11
2018-07-20T16:50:32.246Z,94806.80
2018-07-20T16:55:36.355Z,94797.03
2018-07-20T17:00:59.739Z,94789.57
2018-07-20T17:06:03.092Z,94802.13
2018-07-20T17:11:06.758Z,94806.62
2018-07-20T17:16:10.431Z,94813.07
2018-07-20T17:21:13.794Z,94809.38
2018-07-20T17:26:17.126Z,94803.14
2018-07-20T17:31:20.465Z,94803.06
2018-07-20T17:36:23.850Z,94804.69
2018-07-20T17:41:27.337Z,94809.39
2018-07-20T17:46:31.109Z,94805.36
2018-07-20T17:51:34.446Z,94804.84
2018-07-20T17:56:37.810Z,94804.36
2018-07-20T18:01:41.171Z,94805.53
2018-07-20T18:06:44.531Z,94800.08
2018-07-20T18:11:48.326Z,94791.44
2018-07-20T18:16:53.407Z,94792.66
2018-07-20T18:21:56.770Z,94786.88
2018-07-20T18:27:00.241Z,94792.73
2018-07-20T18:32:04.609Z,94792.44
2018-07-20T18:37:08.182Z,94783.25
2018-07-20T18:42:12.706Z,94787.91
2018-07-20T18:47:17.539Z,94784.88
2018-07-20T18:52:20.886Z,94792.23
2018-07-20T18:57:24.220Z,94786.92
2018-07-20T19:02:28.323Z,94788.45
2018-07-20T19:07:31.653Z,94797.52
2018-07-20T19:12:34.986Z,94798.64
2018-07-20T19:17:39.077Z,94799.15
2018-07-20T19:22:42.422Z,94803.86
2018-07-20T19:27:46.525Z,94812.33
2018-07-20T19:32:49.859Z,94835.91
2018-07-20T19:37:53.194Z,94843.91
2018-07-20T19:42:57.298Z,94833.00
2018-07-20T19:48:00.627Z,94822.52
2018-07-20T19:53:04.731Z,94817.65
2018-07-20T19:58:08.084Z,94831.56
2018-07-20T20:03:11.427Z,94841.96
2018-07-20T20:08:14.746Z,94847.58
2018-07-20T20:13:18.093Z,94849.03
2018-07-20T20:18:21.581Z,94841.20
2018-07-20T20:23:24.942Z,94857.55
2018-07-20T20:28:28.283Z,94863.89
2018-07-20T20:33:31.851Z,94866.30
2018-07-20T20:38:35.215Z,94870.66
2018-07-20T20:43:38.673Z,94886.37
2018-07-20T20:48:42.135Z,94915.14
2018-07-20T20:53:45.490Z,94922.61
2018-07-20T20:58:48.877Z,94920.61
2018-07-20T21:03:52.223Z,94922.40
2018-07-20T21:08:55.592Z,94931.16
2018-07-20T21:13:58.944Z,94958.59
2018-07-20T21:19:02.277Z,94952.11
2018-07-20T21:24:05.632Z,94943.05
2018-07-20T21:29:09.376Z,94922.85
2018-07-20T21:34:13.094Z,94914.05
2018-07-20T21:39:16.552Z,94895.91
2018-07-20T21:44:20.017Z,94893.73
2018-07-20T21:49:23.347Z,94885.36
2018-07-20T21:54:26.706Z,94898.14
2018-07-20T21:59:30.099Z,94921.23
2018-07-20T22:04:33.468Z,94913.50
2018-07-20T22:09:36.826Z,94912.10
2018-07-20T22:14:40.319Z,94926.04
2018-07-20T22:19:43.645Z,94925.06
2018-07-20T22:24:47.012Z,94912.84
2018-07-20T22:29:50.357Z,94913.04
